Vanzil'- Kynak, Russia
Current Conditions -  °F | °C
As of 2:00 PM on Monday 24 Nov 2014 (Local Time) from USNN Reporting Station
Light Snow Light Snow  
Wind Chill: -35°   Ceiling: 3400
Heat Index: -13°   Visibility: 2.1mi
Dew Point: -18°   Wind: 13mph
Humidity: 77%   Direction: 220°SW
Pressure: 29.8"   Gusts: 20mph
Location:  60.35°N, 84.08°E
Report Text: USNN 240700Z 22006G09MPS 3400 -SN OVC034 M25/M28 Q1009 TEMPO2000 SN RMK QFE751 21421552
Loading
Personal Weather Stations






























Interactive Weather Map New forecast layout! Learn more

10-Day Weather Forecast

Advertisements
Track Severe Weather on mobile